notre code QR

Villámtérkép további részletek blitzortung!


Csapadékradar további részletek rain snow radar


További állomásunk adatai:

Template documentation
and downloads

And another site

Mobil nézet





No particular awareness of the weather is required.    There are no Weather-warnings

Közeli METAR jelentések

   
LHBP - Budapest
Frissítve: 01-06-2020 03:30
Borult  
Borult  
   Szél: ÉÉNY 11.1 km/h
Szél: ÉÉNY 11.1 km/h
Hőmérséklet: 12°C
Harmatpont: 11°C
Páratartalom: 94%
Légnyomás: 1014 hPa
Felhők: Borult
Látótávolság: More than 10 km
Felhő fajták: Borult 4900 ft
LHBP 010130Z AUTO 34006KT 9999 OVC049/// 12/11 Q1014
LHKE - Kecskemét
Frissítve: 01-06-2020 03:29
Gyenge eső, Erősen felhős  
Gyenge eső, Erősen felhős  
   Szél: NYÉNY 7.4 km/h
Szél: NYÉNY 7.4 km/h
Hőmérséklet: 12°C
Harmatpont: 11°C
Páratartalom: 94%
Légnyomás: 1014 hPa
Felhők: Erősen felhős
Látótávolság: More than 10 km
Felhő fajták: Erősen felhős 3300 ft,
Erősen felhős 5000 ft
LHKE 010129Z 30004KT 9999 -RA BKN033 BKN050 12/11 Q1014 R12/29//94 TEMPO NSW RMK BLU
LHPP - Pécs
Frissítve: 31-05-2020 19:45
NOT Current
Erősen felhős  
Erősen felhős  
   Szél: NYÉNY 18.5 km/h
Szél: NYÉNY 18.5 km/h
Hőmérséklet: 10°C
Szélhűtés: 8°C
Harmatpont: 8°C
Páratartalom: 88%
Légnyomás: 1015 hPa
Felhők: Erősen felhős
Látótávolság: More than 10 km
Felhő fajták: Erősen felhős 2000 ft
LHPP 311745Z 29010KT 9999 BKN020 10/08 Q1015
LHSN - Szolnok
Frissítve: 01-06-2020 03:15
Borult  
Borult  
   Szél: NY 7.4 km/h
Szél: NY 7.4 km/h
Hőmérséklet: 12°C
Harmatpont: 12°C
Páratartalom: 100%
Légnyomás: 1013 hPa
Felhők: Borult
Látótávolság: More than 10 km
Felhő fajták: Borult 4000 ft
LHSN 010115Z 28004KT 9999 OVC040 12/12 Q1013 NOSIG RMK BLU
LHDC - Debrecen
Frissítve: 01-06-2020 03:15
Borult  
Borult  
   Szél: változó 3.7 km/h
Szél: változó 3.7 km/h
Hőmérséklet: 13°C
Harmatpont: 12°C
Páratartalom: 94%
Légnyomás: 1013 hPa
Felhők: Borult
Látótávolság: 8 km
Felhő fajták: Borult 1800 ft
LHDC 010115Z AUTO VRB02KT 8000 OVC018 13/12 Q1013
LHPA - Pápa
Frissítve: 01-06-2020 03:15
Shallow Patches of, Köd, Kissé felhős  
Shallow Patches of, Köd, Kissé felhős  
   Szél: Szélcsend
Szél: Szélcsend
Hőmérséklet: 8°C
Harmatpont: 8°C
Páratartalom: 100%
Légnyomás: 1016 hPa
Felhők: Kissé felhős
Látótávolság: 8 km
Felhő fajták: Kissé felhős 2000 ft
LHPA 010115Z 00000KT 8000 MIBCFG FEW020 08/08 Q1016 TEMPO 5000 BR MIBCFG RMK BLU

Eredeti script  Saratoga-weather.org Adapted for the template by  Weerstation Leuven

Készülékünk:

Weather-program
Meteobridge

Weather-server
My Computer

Meteobridge

My Computer